sensor_id;sensor_type;location;lat;lon;timestamp;temperature;humidity
25504;DHT22;13410;52.114;5.718;2023-12-04T00:00:08;5.10;99.90
25504;DHT22;13410;52.114;5.718;2023-12-04T00:02:34;5.10;99.90
25504;DHT22;13410;52.114;5.718;2023-12-04T00:04:59;5.00;99.90
25504;DHT22;13410;52.114;5.718;2023-12-04T00:07:25;5.10;99.90
25504;DHT22;13410;52.114;5.718;2023-12-04T00:09:51;5.20;99.90
25504;DHT22;13410;52.114;5.718;2023-12-04T00:12:16;5.20;99.90
25504;DHT22;13410;52.114;5.718;2023-12-04T00:14:42;5.40;99.90
25504;DHT22;13410;52.114;5.718;2023-12-04T00:17:07;5.10;99.90
25504;DHT22;13410;52.114;5.718;2023-12-04T00:19:33;5.20;99.90
25504;DHT22;13410;52.114;5.718;2023-12-04T00:21:59;5.30;99.90
25504;DHT22;13410;52.114;5.718;2023-12-04T00:24:24;5.30;99.90
25504;DHT22;13410;52.114;5.718;2023-12-04T00:26:50;5.40;99.90
25504;DHT22;13410;52.114;5.718;2023-12-04T00:29:15;5.50;99.90
25504;DHT22;13410;52.114;5.718;2023-12-04T00:31:41;5.60;99.90
25504;DHT22;13410;52.114;5.718;2023-12-04T00:34:07;5.80;99.90
25504;DHT22;13410;52.114;5.718;2023-12-04T00:36:32;5.80;99.90
25504;DHT22;13410;52.114;5.718;2023-12-04T00:38:58;5.70;99.90
25504;DHT22;13410;52.114;5.718;2023-12-04T00:41:23;5.50;99.90
25504;DHT22;13410;52.114;5.718;2023-12-04T00:43:49;5.60;99.90
25504;DHT22;13410;52.114;5.718;2023-12-04T00:46:15;5.60;99.90
25504;DHT22;13410;52.114;5.718;2023-12-04T00:48:40;5.60;99.90
25504;DHT22;13410;52.114;5.718;2023-12-04T00:51:06;5.80;99.90
25504;DHT22;13410;52.114;5.718;2023-12-04T00:53:32;5.50;99.90
25504;DHT22;13410;52.114;5.718;2023-12-04T00:55:57;5.50;99.90
25504;DHT22;13410;52.114;5.718;2023-12-04T00:58:23;5.60;99.90
25504;DHT22;13410;52.114;5.718;2023-12-04T01:00:49;5.40;99.90
25504;DHT22;13410;52.114;5.718;2023-12-04T01:03:17;5.30;99.90
25504;DHT22;13410;52.114;5.718;2023-12-04T01:05:42;5.20;99.90
25504;DHT22;13410;52.114;5.718;2023-12-04T01:08:08;5.20;99.90
25504;DHT22;13410;52.114;5.718;2023-12-04T01:10:34;5.10;99.90
25504;DHT22;13410;52.114;5.718;2023-12-04T01:12:59;5.20;99.90
25504;DHT22;13410;52.114;5.718;2023-12-04T01:15:25;5.20;99.90
25504;DHT22;13410;52.114;5.718;2023-12-04T01:17:50;5.40;99.90
25504;DHT22;13410;52.114;5.718;2023-12-04T01:20:16;5.60;99.90
25504;DHT22;13410;52.114;5.718;2023-12-04T01:22:41;5.40;99.90
25504;DHT22;13410;52.114;5.718;2023-12-04T01:25:08;5.40;99.90
25504;DHT22;13410;52.114;5.718;2023-12-04T01:27:33;5.30;99.90
25504;DHT22;13410;52.114;5.718;2023-12-04T01:30:01;5.30;99.90
25504;DHT22;13410;52.114;5.718;2023-12-04T01:32:27;5.20;99.90
25504;DHT22;13410;52.114;5.718;2023-12-04T01:34:52;5.10;99.90
25504;DHT22;13410;52.114;5.718;2023-12-04T01:37:18;5.20;99.90
25504;DHT22;13410;52.114;5.718;2023-12-04T01:39:43;5.10;99.90
25504;DHT22;13410;52.114;5.718;2023-12-04T01:42:09;5.40;99.90
25504;DHT22;13410;52.114;5.718;2023-12-04T01:44:36;5.40;99.90
25504;DHT22;13410;52.114;5.718;2023-12-04T01:47:02;5.50;99.90
25504;DHT22;13410;52.114;5.718;2023-12-04T01:49:28;5.50;99.90
25504;DHT22;13410;52.114;5.718;2023-12-04T01:51:55;5.60;99.90
25504;DHT22;13410;52.114;5.718;2023-12-04T01:54:21;5.80;99.90
25504;DHT22;13410;52.114;5.718;2023-12-04T01:56:47;5.80;99.90
25504;DHT22;13410;52.114;5.718;2023-12-04T01:59:13;5.70;99.90
25504;DHT22;13410;52.114;5.718;2023-12-04T02:01:39;5.70;99.90
25504;DHT22;13410;52.114;5.718;2023-12-04T02:04:06;5.50;99.90
25504;DHT22;13410;52.114;5.718;2023-12-04T02:06:31;5.50;99.90
25504;DHT22;13410;52.114;5.718;2023-12-04T02:08:57;5.70;99.90
25504;DHT22;13410;52.114;5.718;2023-12-04T02:11:23;5.50;99.90
25504;DHT22;13410;52.114;5.718;2023-12-04T02:13:49;5.30;99.90
25504;DHT22;13410;52.114;5.718;2023-12-04T02:16:16;5.50;99.90
25504;DHT22;13410;52.114;5.718;2023-12-04T02:18:44;5.70;99.90
25504;DHT22;13410;52.114;5.718;2023-12-04T02:21:10;5.50;99.90
25504;DHT22;13410;52.114;5.718;2023-12-04T02:23:35;5.60;99.90
25504;DHT22;13410;52.114;5.718;2023-12-04T02:26:15;5.60;99.90
25504;DHT22;13410;52.114;5.718;2023-12-04T02:28:46;5.50;99.90
25504;DHT22;13410;52.114;5.718;2023-12-04T02:31:15;5.30;99.90
25504;DHT22;13410;52.114;5.718;2023-12-04T02:33:42;5.30;99.90
25504;DHT22;13410;52.114;5.718;2023-12-04T02:36:09;5.20;99.90
25504;DHT22;13410;52.114;5.718;2023-12-04T02:38:35;5.20;99.90
25504;DHT22;13410;52.114;5.718;2023-12-04T02:41:01;5.20;99.90
25504;DHT22;13410;52.114;5.718;2023-12-04T02:43:27;5.10;99.90
25504;DHT22;13410;52.114;5.718;2023-12-04T02:45:52;5.40;99.90
25504;DHT22;13410;52.114;5.718;2023-12-04T02:48:18;5.60;99.90
25504;DHT22;13410;52.114;5.718;2023-12-04T02:50:43;5.40;99.90
25504;DHT22;13410;52.114;5.718;2023-12-04T02:53:09;5.20;99.90
25504;DHT22;13410;52.114;5.718;2023-12-04T02:55:35;5.30;99.90
25504;DHT22;13410;52.114;5.718;2023-12-04T02:58:00;5.40;99.90
25504;DHT22;13410;52.114;5.718;2023-12-04T03:00:26;5.50;99.90
25504;DHT22;13410;52.114;5.718;2023-12-04T03:02:51;5.50;99.90
25504;DHT22;13410;52.114;5.718;2023-12-04T03:05:17;5.70;99.90
25504;DHT22;13410;52.114;5.718;2023-12-04T03:07:44;5.60;99.90
25504;DHT22;13410;52.114;5.718;2023-12-04T03:10:11;5.70;99.90
25504;DHT22;13410;52.114;5.718;2023-12-04T03:12:36;5.40;99.90
25504;DHT22;13410;52.114;5.718;2023-12-04T03:15:03;5.60;99.90
25504;DHT22;13410;52.114;5.718;2023-12-04T03:17:29;5.60;99.90
25504;DHT22;13410;52.114;5.718;2023-12-04T03:19:55;5.50;99.90
25504;DHT22;13410;52.114;5.718;2023-12-04T03:22:20;5.60;99.90
25504;DHT22;13410;52.114;5.718;2023-12-04T03:24:46;5.70;99.90
25504;DHT22;13410;52.114;5.718;2023-12-04T03:27:12;5.80;99.90
25504;DHT22;13410;52.114;5.718;2023-12-04T03:29:37;5.70;99.90
25504;DHT22;13410;52.114;5.718;2023-12-04T03:32:03;5.70;99.90
25504;DHT22;13410;52.114;5.718;2023-12-04T03:34:29;5.60;99.90
25504;DHT22;13410;52.114;5.718;2023-12-04T03:36:54;5.60;99.90
25504;DHT22;13410;52.114;5.718;2023-12-04T03:39:20;5.40;99.90
25504;DHT22;13410;52.114;5.718;2023-12-04T03:41:47;5.30;99.90
25504;DHT22;13410;52.114;5.718;2023-12-04T03:44:12;5.20;99.90
25504;DHT22;13410;52.114;5.718;2023-12-04T03:46:38;5.30;99.90
25504;DHT22;13410;52.114;5.718;2023-12-04T03:49:05;5.40;99.90
25504;DHT22;13410;52.114;5.718;2023-12-04T03:51:30;5.50;99.90
25504;DHT22;13410;52.114;5.718;2023-12-04T03:53:56;5.60;99.90
25504;DHT22;13410;52.114;5.718;2023-12-04T03:56:22;5.60;99.90
25504;DHT22;13410;52.114;5.718;2023-12-04T03:58:47;5.70;99.90
25504;DHT22;13410;52.114;5.718;2023-12-04T04:01:13;5.70;99.90
25504;DHT22;13410;52.114;5.718;2023-12-04T04:03:38;5.70;99.90
25504;DHT22;13410;52.114;5.718;2023-12-04T04:06:04;5.70;99.90
25504;DHT22;13410;52.114;5.718;2023-12-04T04:08:30;5.70;99.90
25504;DHT22;13410;52.114;5.718;2023-12-04T04:10:55;5.60;99.90
25504;DHT22;13410;52.114;5.718;2023-12-04T04:13:21;5.60;99.90
25504;DHT22;13410;52.114;5.718;2023-12-04T04:15:46;5.70;99.90
25504;DHT22;13410;52.114;5.718;2023-12-04T04:18:12;5.90;99.90
25504;DHT22;13410;52.114;5.718;2023-12-04T04:20:37;5.80;99.90
25504;DHT22;13410;52.114;5.718;2023-12-04T04:23:03;5.70;99.90
25504;DHT22;13410;52.114;5.718;2023-12-04T04:25:29;5.50;99.90
25504;DHT22;13410;52.114;5.718;2023-12-04T04:27:54;5.40;99.90
25504;DHT22;13410;52.114;5.718;2023-12-04T04:30:20;5.40;99.90
25504;DHT22;13410;52.114;5.718;2023-12-04T04:32:45;5.20;99.90
25504;DHT22;13410;52.114;5.718;2023-12-04T04:35:11;5.40;99.90
25504;DHT22;13410;52.114;5.718;2023-12-04T04:37:37;5.40;99.90
25504;DHT22;13410;52.114;5.718;2023-12-04T04:40:03;5.50;99.90
25504;DHT22;13410;52.114;5.718;2023-12-04T04:42:29;5.40;99.90
25504;DHT22;13410;52.114;5.718;2023-12-04T04:44:54;5.50;99.90
25504;DHT22;13410;52.114;5.718;2023-12-04T04:47:20;5.50;99.90
25504;DHT22;13410;52.114;5.718;2023-12-04T04:49:45;5.50;99.90
25504;DHT22;13410;52.114;5.718;2023-12-04T04:52:11;5.50;99.90
25504;DHT22;13410;52.114;5.718;2023-12-04T04:54:37;5.30;99.90
25504;DHT22;13410;52.114;5.718;2023-12-04T04:57:02;5.30;99.90
25504;DHT22;13410;52.114;5.718;2023-12-04T04:59:28;5.20;99.90
25504;DHT22;13410;52.114;5.718;2023-12-04T05:01:56;5.30;99.90
25504;DHT22;13410;52.114;5.718;2023-12-04T05:04:22;5.40;99.90
25504;DHT22;13410;52.114;5.718;2023-12-04T05:06:47;5.40;99.90
25504;DHT22;13410;52.114;5.718;2023-12-04T05:09:13;5.40;99.90
25504;DHT22;13410;52.114;5.718;2023-12-04T05:11:38;5.20;99.90
25504;DHT22;13410;52.114;5.718;2023-12-04T05:14:04;5.00;99.90
25504;DHT22;13410;52.114;5.718;2023-12-04T05:16:30;4.80;99.90
25504;DHT22;13410;52.114;5.718;2023-12-04T05:18:55;4.90;99.90
25504;DHT22;13410;52.114;5.718;2023-12-04T05:21:21;5.00;99.90
25504;DHT22;13410;52.114;5.718;2023-12-04T05:23:46;5.10;99.90
25504;DHT22;13410;52.114;5.718;2023-12-04T05:26:13;5.10;99.90
25504;DHT22;13410;52.114;5.718;2023-12-04T05:28:39;4.90;99.90
25504;DHT22;13410;52.114;5.718;2023-12-04T05:31:05;5.00;99.90
25504;DHT22;13410;52.114;5.718;2023-12-04T05:33:31;5.10;99.90
25504;DHT22;13410;52.114;5.718;2023-12-04T05:35:56;5.10;99.90
25504;DHT22;13410;52.114;5.718;2023-12-04T05:38:22;5.10;99.90
25504;DHT22;13410;52.114;5.718;2023-12-04T05:40:48;5.20;99.90
25504;DHT22;13410;52.114;5.718;2023-12-04T05:43:14;5.10;99.90
25504;DHT22;13410;52.114;5.718;2023-12-04T05:45:39;5.20;99.90
25504;DHT22;13410;52.114;5.718;2023-12-04T05:48:05;5.10;99.90
25504;DHT22;13410;52.114;5.718;2023-12-04T05:50:31;5.20;99.90
25504;DHT22;13410;52.114;5.718;2023-12-04T05:52:57;5.40;99.90
25504;DHT22;13410;52.114;5.718;2023-12-04T05:55:22;5.40;99.90
25504;DHT22;13410;52.114;5.718;2023-12-04T05:57:48;5.20;99.90
25504;DHT22;13410;52.114;5.718;2023-12-04T06:00:14;5.20;99.90
25504;DHT22;13410;52.114;5.718;2023-12-04T06:02:41;5.30;99.90
25504;DHT22;13410;52.114;5.718;2023-12-04T06:05:07;5.40;99.90
25504;DHT22;13410;52.114;5.718;2023-12-04T06:07:33;5.20;99.90
25504;DHT22;13410;52.114;5.718;2023-12-04T06:09:59;5.20;99.90
25504;DHT22;13410;52.114;5.718;2023-12-04T06:12:24;5.10;99.90
25504;DHT22;13410;52.114;5.718;2023-12-04T06:14:50;4.90;99.90
25504;DHT22;13410;52.114;5.718;2023-12-04T06:17:16;5.10;99.90
25504;DHT22;13410;52.114;5.718;2023-12-04T06:19:42;5.10;99.90
25504;DHT22;13410;52.114;5.718;2023-12-04T06:22:07;4.90;99.90
25504;DHT22;13410;52.114;5.718;2023-12-04T06:24:33;4.80;99.90
25504;DHT22;13410;52.114;5.718;2023-12-04T06:26:59;4.70;99.90
25504;DHT22;13410;52.114;5.718;2023-12-04T06:29:25;4.80;99.90
25504;DHT22;13410;52.114;5.718;2023-12-04T06:31:51;4.90;99.90
25504;DHT22;13410;52.114;5.718;2023-12-04T06:34:17;4.70;99.90
25504;DHT22;13410;52.114;5.718;2023-12-04T06:36:43;4.80;99.90
25504;DHT22;13410;52.114;5.718;2023-12-04T06:39:12;4.90;99.90
25504;DHT22;13410;52.114;5.718;2023-12-04T06:41:42;5.10;99.90
25504;DHT22;13410;52.114;5.718;2023-12-04T06:44:09;4.90;99.90
25504;DHT22;13410;52.114;5.718;2023-12-04T06:46:38;4.80;99.90
25504;DHT22;13410;52.114;5.718;2023-12-04T06:49:05;4.70;99.90
25504;DHT22;13410;52.114;5.718;2023-12-04T06:51:34;4.90;99.90
25504;DHT22;13410;52.114;5.718;2023-12-04T06:53:59;5.00;99.90
25504;DHT22;13410;52.114;5.718;2023-12-04T06:56:25;5.10;99.90
25504;DHT22;13410;52.114;5.718;2023-12-04T06:58:51;4.90;99.90
25504;DHT22;13410;52.114;5.718;2023-12-04T07:01:16;4.70;99.90
25504;DHT22;13410;52.114;5.718;2023-12-04T07:03:42;4.70;99.90
25504;DHT22;13410;52.114;5.718;2023-12-04T07:06:08;4.90;99.90
25504;DHT22;13410;52.114;5.718;2023-12-04T07:08:33;4.80;99.90
25504;DHT22;13410;52.114;5.718;2023-12-04T07:10:59;4.80;99.90
25504;DHT22;13410;52.114;5.718;2023-12-04T07:13:25;5.10;99.90
25504;DHT22;13410;52.114;5.718;2023-12-04T07:15:50;5.00;99.90
25504;DHT22;13410;52.114;5.718;2023-12-04T07:18:16;5.10;99.90
25504;DHT22;13410;52.114;5.718;2023-12-04T07:20:42;5.00;99.90
25504;DHT22;13410;52.114;5.718;2023-12-04T07:23:08;4.90;99.90
25504;DHT22;13410;52.114;5.718;2023-12-04T07:25:33;4.90;99.90
25504;DHT22;13410;52.114;5.718;2023-12-04T07:27:59;4.80;99.90
25504;DHT22;13410;52.114;5.718;2023-12-04T07:30:25;4.90;99.90
25504;DHT22;13410;52.114;5.718;2023-12-04T07:32:51;5.00;99.90
25504;DHT22;13410;52.114;5.718;2023-12-04T07:35:17;4.90;99.90
25504;DHT22;13410;52.114;5.718;2023-12-04T07:37:43;4.90;99.90
25504;DHT22;13410;52.114;5.718;2023-12-04T07:40:10;5.00;99.90
25504;DHT22;13410;52.114;5.718;2023-12-04T07:42:37;5.10;99.90
25504;DHT22;13410;52.114;5.718;2023-12-04T07:45:02;4.90;99.90
25504;DHT22;13410;52.114;5.718;2023-12-04T07:47:29;4.60;99.90
25504;DHT22;13410;52.114;5.718;2023-12-04T07:49:54;4.50;99.90
25504;DHT22;13410;52.114;5.718;2023-12-04T07:52:20;4.50;99.90
25504;DHT22;13410;52.114;5.718;2023-12-04T07:54:45;4.90;99.90
25504;DHT22;13410;52.114;5.718;2023-12-04T07:57:11;5.00;99.90
25504;DHT22;13410;52.114;5.718;2023-12-04T07:59:37;5.10;99.90
25504;DHT22;13410;52.114;5.718;2023-12-04T08:02:02;5.10;99.90
25504;DHT22;13410;52.114;5.718;2023-12-04T08:04:28;5.30;99.90
25504;DHT22;13410;52.114;5.718;2023-12-04T08:06:54;5.10;99.90
25504;DHT22;13410;52.114;5.718;2023-12-04T08:09:20;5.30;99.90
25504;DHT22;13410;52.114;5.718;2023-12-04T08:11:46;5.50;99.90
25504;DHT22;13410;52.114;5.718;2023-12-04T08:14:12;5.20;99.90
25504;DHT22;13410;52.114;5.718;2023-12-04T08:16:37;5.00;99.90
25504;DHT22;13410;52.114;5.718;2023-12-04T08:19:03;4.80;99.90
25504;DHT22;13410;52.114;5.718;2023-12-04T08:21:29;5.00;99.90
25504;DHT22;13410;52.114;5.718;2023-12-04T08:23:54;4.90;99.90
25504;DHT22;13410;52.114;5.718;2023-12-04T08:26:24;5.20;99.90
25504;DHT22;13410;52.114;5.718;2023-12-04T08:28:53;5.10;99.90
25504;DHT22;13410;52.114;5.718;2023-12-04T08:31:18;5.20;99.90
25504;DHT22;13410;52.114;5.718;2023-12-04T08:33:44;5.30;99.90
25504;DHT22;13410;52.114;5.718;2023-12-04T08:36:11;5.30;99.90
25504;DHT22;13410;52.114;5.718;2023-12-04T08:38:37;5.30;99.90
25504;DHT22;13410;52.114;5.718;2023-12-04T08:41:04;5.30;99.90
25504;DHT22;13410;52.114;5.718;2023-12-04T08:43:29;5.40;99.90
25504;DHT22;13410;52.114;5.718;2023-12-04T08:45:55;5.50;99.90
25504;DHT22;13410;52.114;5.718;2023-12-04T08:48:21;5.70;99.90
25504;DHT22;13410;52.114;5.718;2023-12-04T08:50:47;5.60;99.90
25504;DHT22;13410;52.114;5.718;2023-12-04T08:53:13;5.60;99.90
25504;DHT22;13410;52.114;5.718;2023-12-04T08:55:39;5.40;99.90
25504;DHT22;13410;52.114;5.718;2023-12-04T08:58:04;5.20;99.90
25504;DHT22;13410;52.114;5.718;2023-12-04T09:00:30;5.20;99.90
25504;DHT22;13410;52.114;5.718;2023-12-04T09:02:56;5.20;99.90
25504;DHT22;13410;52.114;5.718;2023-12-04T09:05:21;5.00;99.90
25504;DHT22;13410;52.114;5.718;2023-12-04T09:07:47;5.10;99.90
25504;DHT22;13410;52.114;5.718;2023-12-04T09:10:13;5.10;99.90
25504;DHT22;13410;52.114;5.718;2023-12-04T09:12:40;5.30;99.90
25504;DHT22;13410;52.114;5.718;2023-12-04T09:15:06;5.30;99.90
25504;DHT22;13410;52.114;5.718;2023-12-04T09:17:32;5.50;99.90
25504;DHT22;13410;52.114;5.718;2023-12-04T09:19:57;5.70;99.90
25504;DHT22;13410;52.114;5.718;2023-12-04T09:22:23;5.50;99.90
25504;DHT22;13410;52.114;5.718;2023-12-04T09:24:49;5.60;99.90
25504;DHT22;13410;52.114;5.718;2023-12-04T09:27:15;5.70;99.90
25504;DHT22;13410;52.114;5.718;2023-12-04T09:29:42;5.90;99.90
25504;DHT22;13410;52.114;5.718;2023-12-04T09:32:08;6.10;99.90
25504;DHT22;13410;52.114;5.718;2023-12-04T09:34:35;6.10;99.90
25504;DHT22;13410;52.114;5.718;2023-12-04T09:37:01;6.20;99.90
25504;DHT22;13410;52.114;5.718;2023-12-04T09:39:28;6.00;99.90
25504;DHT22;13410;52.114;5.718;2023-12-04T09:41:55;6.10;99.90
25504;DHT22;13410;52.114;5.718;2023-12-04T09:44:22;6.20;99.90
25504;DHT22;13410;52.114;5.718;2023-12-04T09:46:50;6.40;99.90
25504;DHT22;13410;52.114;5.718;2023-12-04T09:49:17;6.50;99.90
25504;DHT22;13410;52.114;5.718;2023-12-04T09:51:44;6.70;99.90
25504;DHT22;13410;52.114;5.718;2023-12-04T09:54:10;6.90;99.90
25504;DHT22;13410;52.114;5.718;2023-12-04T09:56:37;6.90;99.90
25504;DHT22;13410;52.114;5.718;2023-12-04T09:59:05;6.90;99.90
25504;DHT22;13410;52.114;5.718;2023-12-04T10:01:33;6.80;99.90
25504;DHT22;13410;52.114;5.718;2023-12-04T10:04:00;6.90;99.90
25504;DHT22;13410;52.114;5.718;2023-12-04T10:06:27;6.80;99.90
25504;DHT22;13410;52.114;5.718;2023-12-04T10:08:55;6.90;99.90
25504;DHT22;13410;52.114;5.718;2023-12-04T10:11:24;7.10;99.90
25504;DHT22;13410;52.114;5.718;2023-12-04T10:13:51;7.30;99.90
25504;DHT22;13410;52.114;5.718;2023-12-04T10:16:34;7.40;99.90
25504;DHT22;13410;52.114;5.718;2023-12-04T10:19:16;7.60;99.90
25504;DHT22;13410;52.114;5.718;2023-12-04T10:21:47;7.60;99.90
25504;DHT22;13410;52.114;5.718;2023-12-04T10:24:26;7.50;99.90
25504;DHT22;13410;52.114;5.718;2023-12-04T10:26:52;7.60;99.90
25504;DHT22;13410;52.114;5.718;2023-12-04T10:29:17;7.70;99.90
25504;DHT22;13410;52.114;5.718;2023-12-04T10:31:43;7.50;99.90
25504;DHT22;13410;52.114;5.718;2023-12-04T10:34:09;7.40;99.90
25504;DHT22;13410;52.114;5.718;2023-12-04T10:36:38;7.70;99.90
25504;DHT22;13410;52.114;5.718;2023-12-04T10:39:03;7.70;99.90
25504;DHT22;13410;52.114;5.718;2023-12-04T10:41:32;7.70;99.90
25504;DHT22;13410;52.114;5.718;2023-12-04T10:43:58;7.70;99.90
25504;DHT22;13410;52.114;5.718;2023-12-04T10:46:24;7.60;99.90
25504;DHT22;13410;52.114;5.718;2023-12-04T10:48:51;7.50;99.90
25504;DHT22;13410;52.114;5.718;2023-12-04T10:51:17;7.50;99.90
25504;DHT22;13410;52.114;5.718;2023-12-04T10:53:43;7.40;99.90
25504;DHT22;13410;52.114;5.718;2023-12-04T10:56:20;7.50;99.90
25504;DHT22;13410;52.114;5.718;2023-12-04T10:58:51;7.60;99.90
25504;DHT22;13410;52.114;5.718;2023-12-04T11:01:18;7.30;99.90
25504;DHT22;13410;52.114;5.718;2023-12-04T11:03:47;7.20;99.90
25504;DHT22;13410;52.114;5.718;2023-12-04T11:06:16;7.20;99.90
25504;DHT22;13410;52.114;5.718;2023-12-04T11:08:43;7.30;99.90
25504;DHT22;13410;52.114;5.718;2023-12-04T11:11:27;7.50;99.90
25504;DHT22;13410;52.114;5.718;2023-12-04T11:13:55;7.60;99.90
25504;DHT22;13410;52.114;5.718;2023-12-04T11:16:31;7.50;99.90
25504;DHT22;13410;52.114;5.718;2023-12-04T11:19:20;7.70;99.90
25504;DHT22;13410;52.114;5.718;2023-12-04T11:21:50;7.50;99.90
25504;DHT22;13410;52.114;5.718;2023-12-04T11:24:18;7.70;99.90
25504;DHT22;13410;52.114;5.718;2023-12-04T11:26:44;7.60;99.90
25504;DHT22;13410;52.114;5.718;2023-12-04T11:29:11;7.50;99.90
25504;DHT22;13410;52.114;5.718;2023-12-04T11:31:38;7.50;99.90
25504;DHT22;13410;52.114;5.718;2023-12-04T11:34:04;7.40;99.90
25504;DHT22;13410;52.114;5.718;2023-12-04T11:36:30;7.30;99.90
25504;DHT22;13410;52.114;5.718;2023-12-04T11:38:56;7.40;99.90
25504;DHT22;13410;52.114;5.718;2023-12-04T11:41:25;7.50;99.90
25504;DHT22;13410;52.114;5.718;2023-12-04T11:43:51;7.30;99.90
25504;DHT22;13410;52.114;5.718;2023-12-04T11:46:19;7.20;99.90
25504;DHT22;13410;52.114;5.718;2023-12-04T11:48:49;7.30;99.90
25504;DHT22;13410;52.114;5.718;2023-12-04T11:54:09;7.40;99.90
25504;DHT22;13410;52.114;5.718;2023-12-04T11:56:38;7.30;99.90
25504;DHT22;13410;52.114;5.718;2023-12-04T11:59:05;7.30;99.90
25504;DHT22;13410;52.114;5.718;2023-12-04T12:01:37;7.60;99.90
25504;DHT22;13410;52.114;5.718;2023-12-04T12:04:06;7.60;99.90
25504;DHT22;13410;52.114;5.718;2023-12-04T12:06:32;7.40;99.90
25504;DHT22;13410;52.114;5.718;2023-12-04T12:08:58;7.10;99.90
25504;DHT22;13410;52.114;5.718;2023-12-04T12:11:24;6.90;99.90
25504;DHT22;13410;52.114;5.718;2023-12-04T12:13:50;6.90;99.90
25504;DHT22;13410;52.114;5.718;2023-12-04T12:16:18;7.00;99.90
25504;DHT22;13410;52.114;5.718;2023-12-04T12:18:43;7.20;99.90
25504;DHT22;13410;52.114;5.718;2023-12-04T12:21:09;7.00;99.90
25504;DHT22;13410;52.114;5.718;2023-12-04T12:23:35;7.00;99.90
25504;DHT22;13410;52.114;5.718;2023-12-04T12:26:01;7.10;99.90
25504;DHT22;13410;52.114;5.718;2023-12-04T12:28:28;7.00;99.90
25504;DHT22;13410;52.114;5.718;2023-12-04T12:30:55;7.20;99.90
25504;DHT22;13410;52.114;5.718;2023-12-04T12:33:21;7.30;99.90
25504;DHT22;13410;52.114;5.718;2023-12-04T12:35:48;7.10;99.90
25504;DHT22;13410;52.114;5.718;2023-12-04T12:38:14;7.20;99.90
25504;DHT22;13410;52.114;5.718;2023-12-04T12:40:40;7.20;99.90
25504;DHT22;13410;52.114;5.718;2023-12-04T12:43:06;7.00;99.90
25504;DHT22;13410;52.114;5.718;2023-12-04T12:45:42;6.80;99.90
25504;DHT22;13410;52.114;5.718;2023-12-04T12:48:15;6.70;99.90
25504;DHT22;13410;52.114;5.718;2023-12-04T12:50:42;6.60;99.90
25504;DHT22;13410;52.114;5.718;2023-12-04T12:53:08;6.80;99.90
25504;DHT22;13410;52.114;5.718;2023-12-04T12:55:40;6.80;99.90
25504;DHT22;13410;52.114;5.718;2023-12-04T12:58:06;6.90;99.90
25504;DHT22;13410;52.114;5.718;2023-12-04T13:00:34;7.00;99.90
25504;DHT22;13410;52.114;5.718;2023-12-04T13:02:59;7.00;99.90
25504;DHT22;13410;52.114;5.718;2023-12-04T13:05:26;6.90;99.90
25504;DHT22;13410;52.114;5.718;2023-12-04T13:07:51;6.80;99.90
25504;DHT22;13410;52.114;5.718;2023-12-04T13:10:17;7.00;99.90
25504;DHT22;13410;52.114;5.718;2023-12-04T13:12:43;7.00;99.90
25504;DHT22;13410;52.114;5.718;2023-12-04T13:15:09;6.90;99.90
25504;DHT22;13410;52.114;5.718;2023-12-04T13:17:36;7.10;99.90
25504;DHT22;13410;52.114;5.718;2023-12-04T13:20:01;7.40;99.90
25504;DHT22;13410;52.114;5.718;2023-12-04T13:22:29;7.60;99.90
25504;DHT22;13410;52.114;5.718;2023-12-04T13:24:55;7.70;99.90
25504;DHT22;13410;52.114;5.718;2023-12-04T13:27:20;7.70;99.90
25504;DHT22;13410;52.114;5.718;2023-12-04T13:29:46;7.50;99.90
25504;DHT22;13410;52.114;5.718;2023-12-04T13:32:15;7.40;99.90
25504;DHT22;13410;52.114;5.718;2023-12-04T13:34:41;7.40;99.90
25504;DHT22;13410;52.114;5.718;2023-12-04T13:37:08;7.40;99.90
25504;DHT22;13410;52.114;5.718;2023-12-04T13:39:33;7.40;99.90
25504;DHT22;13410;52.114;5.718;2023-12-04T13:42:14;7.30;99.90
25504;DHT22;13410;52.114;5.718;2023-12-04T13:45:03;7.30;99.90
25504;DHT22;13410;52.114;5.718;2023-12-04T13:47:29;7.10;99.90
25504;DHT22;13410;52.114;5.718;2023-12-04T13:49:55;7.00;99.90
25504;DHT22;13410;52.114;5.718;2023-12-04T13:52:21;7.10;99.90
25504;DHT22;13410;52.114;5.718;2023-12-04T13:54:48;7.10;99.90
25504;DHT22;13410;52.114;5.718;2023-12-04T13:57:15;7.20;99.90
25504;DHT22;13410;52.114;5.718;2023-12-04T13:59:46;7.30;99.90
25504;DHT22;13410;52.114;5.718;2023-12-04T14:02:12;7.10;99.90
25504;DHT22;13410;52.114;5.718;2023-12-04T14:04:38;7.30;99.90
25504;DHT22;13410;52.114;5.718;2023-12-04T14:07:07;7.30;99.90
25504;DHT22;13410;52.114;5.718;2023-12-04T14:09:37;7.10;99.90
25504;DHT22;13410;52.114;5.718;2023-12-04T14:12:03;7.10;99.90
25504;DHT22;13410;52.114;5.718;2023-12-04T14:14:29;7.00;99.90
25504;DHT22;13410;52.114;5.718;2023-12-04T14:16:54;7.20;99.90
25504;DHT22;13410;52.114;5.718;2023-12-04T14:19:20;7.10;99.90
25504;DHT22;13410;52.114;5.718;2023-12-04T14:21:47;6.90;99.90
25504;DHT22;13410;52.114;5.718;2023-12-04T14:24:15;6.90;99.90
25504;DHT22;13410;52.114;5.718;2023-12-04T14:26:41;6.80;99.90
25504;DHT22;13410;52.114;5.718;2023-12-04T14:29:07;6.80;99.90
25504;DHT22;13410;52.114;5.718;2023-12-04T14:31:36;6.80;99.90
25504;DHT22;13410;52.114;5.718;2023-12-04T14:34:02;6.90;99.90
25504;DHT22;13410;52.114;5.718;2023-12-04T14:36:29;6.80;99.90
25504;DHT22;13410;52.114;5.718;2023-12-04T14:38:58;7.00;99.90
25504;DHT22;13410;52.114;5.718;2023-12-04T14:41:23;6.90;99.90
25504;DHT22;13410;52.114;5.718;2023-12-04T14:43:49;7.00;99.90
25504;DHT22;13410;52.114;5.718;2023-12-04T14:46:14;6.90;99.90
25504;DHT22;13410;52.114;5.718;2023-12-04T14:48:40;6.80;99.90
25504;DHT22;13410;52.114;5.718;2023-12-04T14:51:07;7.00;99.90
25504;DHT22;13410;52.114;5.718;2023-12-04T14:53:33;7.00;99.90
25504;DHT22;13410;52.114;5.718;2023-12-04T14:56:11;7.10;99.90
25504;DHT22;13410;52.114;5.718;2023-12-04T14:58:56;7.00;99.90
25504;DHT22;13410;52.114;5.718;2023-12-04T15:01:44;7.10;99.90
25504;DHT22;13410;52.114;5.718;2023-12-04T15:04:19;6.80;99.90
25504;DHT22;13410;52.114;5.718;2023-12-04T15:07:03;6.80;99.90
25504;DHT22;13410;52.114;5.718;2023-12-04T15:09:29;6.80;99.90
25504;DHT22;13410;52.114;5.718;2023-12-04T15:12:00;6.90;99.90
25504;DHT22;13410;52.114;5.718;2023-12-04T15:14:48;7.10;99.90
25504;DHT22;13410;52.114;5.718;2023-12-04T15:17:14;7.00;99.90
25504;DHT22;13410;52.114;5.718;2023-12-04T15:19:55;7.10;99.90
25504;DHT22;13410;52.114;5.718;2023-12-04T15:22:36;7.30;99.90
25504;DHT22;13410;52.114;5.718;2023-12-04T15:25:06;7.30;99.90
25504;DHT22;13410;52.114;5.718;2023-12-04T15:27:39;7.00;99.90
25504;DHT22;13410;52.114;5.718;2023-12-04T15:30:05;6.90;99.90
25504;DHT22;13410;52.114;5.718;2023-12-04T15:32:33;6.70;99.90
25504;DHT22;13410;52.114;5.718;2023-12-04T15:34:59;6.70;99.90
25504;DHT22;13410;52.114;5.718;2023-12-04T15:37:24;6.50;99.90
25504;DHT22;13410;52.114;5.718;2023-12-04T15:39:51;6.40;99.90
25504;DHT22;13410;52.114;5.718;2023-12-04T15:42:16;6.40;99.90
25504;DHT22;13410;52.114;5.718;2023-12-04T15:44:42;6.50;99.90